Time;durP1;ratioP1;P1;durP2;ratioP2;P2;SDS_P1;SDS_P2;PMS_P1;PMS_P2;Temp;Humidity;BMP_temperature;BMP_pressure;BME280_temperature;BME280_humidity;BME280_pressure;Samples;Min_cycle;Max_cycle;Signal;HPM_P1;HPM_P2
2022/12/15 00:40:30;;;;;;;50.05;17.75;;;;;;;-4.33;100.00;97443.44;4254200;33;20058;-75
2022/12/15 00:42:57;;;;;;;43.38;19.15;;;;;;;-4.62;100.00;97379.63;4255224;33;20042;-76
2022/12/15 00:46:53;;;;;;;53.55;18.25;;;;;;;-4.52;100.00;97393.19;4252942;33;20127;-76
2022/12/15 00:48:13;;;;;;;49.17;19.00;;;;;;;-4.43;100.00;97413.06;4238245;33;20043;-76
2022/12/15 00:50:52;;;;;;;47.15;18.70;;;;;;;-4.36;100.00;97422.81;4239708;33;20080;-76
2022/12/15 03:02:48;;;;;;;60.93;20.43;;;;;;;-3.26;100.00;97541.25;4292704;33;20041;-74
2022/12/15 03:05:17;;;;;;;44.17;17.77;;;;;;;-3.31;100.00;97531.31;4296745;33;20755;-75
2022/12/15 03:07:44;;;;;;;58.90;18.87;;;;;;;-3.41;100.00;97534.31;4297319;33;20607;-75
2022/12/15 03:10:13;;;;;;;40.85;17.73;;;;;;;-3.87;100.00;97488.38;4279467;33;20042;-75
2022/12/15 03:12:39;;;;;;;43.15;17.58;;;;;;;-3.57;100.00;97510.97;4280397;33;20063;-74
2022/12/15 03:15:06;;;;;;;51.88;20.20;;;;;;;-3.54;100.00;97539.50;4279206;33;20047;-75
2022/12/15 03:17:32;;;;;;;54.63;18.02;;;;;;;-3.73;100.00;97541.88;4279641;33;20053;-74
2022/12/15 03:19:59;;;;;;;46.63;18.42;;;;;;;-3.89;100.00;97542.19;4279804;33;20034;-75
2022/12/15 03:22:25;;;;;;;55.85;18.77;;;;;;;-3.72;100.00;97546.13;4280334;33;20037;-74
2022/12/15 03:24:52;;;;;;;46.50;17.50;;;;;;;-4.02;100.00;97538.47;4279642;33;20060;-75
2022/12/15 03:27:18;;;;;;;43.72;16.90;;;;;;;-4.21;100.00;97539.16;4279102;33;20074;-74
2022/12/15 03:29:45;;;;;;;51.25;19.10;;;;;;;-4.11;100.00;97565.91;4279980;33;20064;-74
2022/12/15 03:32:11;;;;;;;49.42;19.75;;;;;;;-4.22;100.00;97567.25;4252823;33;20064;-74
2022/12/15 03:34:38;;;;;;;49.35;18.60;;;;;;;-3.97;100.00;97566.81;4251291;33;20064;-74
2022/12/15 03:37:05;;;;;;;48.15;18.95;;;;;;;-4.64;100.00;97491.91;4249788;33;20081;-74
2022/12/15 03:39:32;;;;;;;47.15;19.70;;;;;;;-4.10;100.00;97562.28;4265737;33;20072;-74
2022/12/15 03:41:58;;;;;;;53.60;20.45;;;;;;;-4.32;100.00;97553.63;4277555;33;20060;-74
2022/12/15 03:44:25;;;;;;;52.50;21.05;;;;;;;-4.28;100.00;97559.31;4280249;33;20422;-74
2022/12/15 03:46:51;;;;;;;47.30;18.65;;;;;;;-4.14;100.00;97563.66;4278895;33;20033;-74
2022/12/15 03:49:18;;;;;;;61.88;21.35;;;;;;;-4.37;100.00;97550.75;4279231;33;20045;-74
2022/12/15 03:51:44;;;;;;;55.20;21.17;;;;;;;-4.56;100.00;97563.53;4280024;33;20046;-74
2022/12/15 03:54:12;;;;;;;53.40;21.85;;;;;;;-4.53;100.00;97572.88;4269427;33;20078;-74
2022/12/15 03:56:38;;;;;;;58.60;21.67;;;;;;;-4.42;100.00;97580.25;4274614;33;20447;-75
2022/12/15 03:59:12;;;;;;;64.10;22.15;;;;;;;-4.38;100.00;97585.91;4265561;33;20302;-74
2022/12/15 04:01:45;;;;;;;63.35;25.55;;;;;;;-4.30;100.00;97580.53;4265232;33;20071;-74
2022/12/15 04:04:12;;;;;;;57.45;22.87;;;;;;;-4.22;100.00;97543.59;4265566;33;20373;-74
2022/12/15 04:06:38;;;;;;;60.28;23.38;;;;;;;-4.25;100.00;97583.38;4265061;33;20051;-74
2022/12/15 04:09:05;;;;;;;59.83;22.58;;;;;;;-4.28;100.00;97585.59;4266137;33;20058;-75
2022/12/15 04:11:31;;;;;;;69.15;24.40;;;;;;;-4.25;100.00;97585.22;4268971;33;20456;-76
2022/12/15 04:13:58;;;;;;;64.37;23.70;;;;;;;-4.07;100.00;97585.56;4268601;33;20043;-75
2022/12/15 04:16:24;;;;;;;59.45;21.48;;;;;;;-4.06;100.00;97589.81;4267381;33;20509;-75
2022/12/15 04:20:07;;;;;;;68.53;23.75;;;;;;;-4.24;100.00;97584.22;4266327;33;20067;-75
2022/12/15 04:21:37;;;;;;;57.78;21.73;;;;;;;-4.39;100.00;97595.62;4262720;33;20034;-75
2022/12/15 05:32:54;;;;;;;68.00;23.27;;;;;;;-4.44;100.00;97697.84;4297950;33;20974;-73
2022/12/15 05:35:20;;;;;;;51.33;22.20;;;;;;;-4.33;100.00;97703.62;4266610;33;20500;-74
2022/12/15 05:37:47;;;;;;;54.92;19.40;;;;;;;-4.68;100.00;97712.13;4267399;33;20574;-74
2022/12/15 05:40:13;;;;;;;73.05;26.80;;;;;;;-4.49;100.00;97705.47;4265115;33;20090;-74
2022/12/15 05:42:40;;;;;;;79.03;26.77;;;;;;;-4.22;100.00;97717.06;4267001;33;20139;-74
2022/12/15 05:45:07;;;;;;;66.35;25.92;;;;;;;-4.17;100.00;97724.38;4266847;33;20193;-75
2022/12/15 05:47:33;;;;;;;80.05;26.08;;;;;;;-4.23;100.00;97717.25;4266337;33;20063;-75
2022/12/15 05:50:00;;;;;;;81.45;28.87;;;;;;;-4.61;100.00;97680.69;4266771;33;20060;-74
2022/12/15 05:52:26;;;;;;;76.72;30.27;;;;;;;-4.35;100.00;97680.16;4263500;33;20168;-74
2022/12/15 05:54:52;;;;;;;41.22;15.35;;;;;;;-4.15;100.00;97732.91;4253005;33;21011;-74
2022/12/15 05:57:19;;;;;;;40.33;17.80;;;;;;;-4.60;100.00;97708.59;4252821;33;20109;-74
2022/12/15 05:59:46;;;;;;;78.37;27.85;;;;;;;-4.43;100.00;97741.50;4251133;33;20052;-74
2022/12/15 06:02:12;;;;;;;73.75;25.88;;;;;;;-4.18;100.00;97738.53;4264200;33;20407;-74
2022/12/15 06:04:39;;;;;;;88.43;30.30;;;;;;;-4.26;100.00;97746.53;4249487;33;20159;-74
2022/12/15 06:07:05;;;;;;;71.85;26.60;;;;;;;-4.18;100.00;97704.34;4272363;33;20223;-74
2022/12/15 06:09:32;;;;;;;46.10;18.62;;;;;;;-4.23;100.00;97747.00;4264972;33;20097;-74
2022/12/15 06:11:58;;;;;;;77.05;25.58;;;;;;;-4.42;100.00;97748.41;4266437;33;20051;-75
2022/12/15 06:14:25;;;;;;;74.90;30.62;;;;;;;-4.45;100.00;97727.75;4266662;33;20226;-76
2022/12/15 06:16:51;;;;;;;79.10;29.42;;;;;;;-4.10;100.00;97735.81;4264824;33;20034;-75
2022/12/15 06:19:18;;;;;;;71.43;27.42;;;;;;;-3.86;100.00;97773.22;4266079;33;20042;-75
2022/12/15 06:21:45;;;;;;;96.87;29.25;;;;;;;-4.12;100.00;97732.53;4266197;33;20055;-75
2022/12/15 06:24:11;;;;;;;60.05;19.23;;;;;;;-3.87;100.00;97782.13;4264240;33;20064;-75
2022/12/15 06:26:38;;;;;;;73.12;29.77;;;;;;;-4.27;100.00;97771.22;4264504;33;20042;-74
2022/12/15 06:29:08;;;;;;;79.68;27.67;;;;;;;-3.96;100.00;97783.25;4260902;33;20062;-75
2022/12/15 06:31:35;;;;;;;85.53;29.92;;;;;;;-3.84;100.00;97797.53;4265421;33;20085;-75
2022/12/15 06:34:04;;;;;;;88.93;29.77;;;;;;;-4.45;100.00;97754.03;4266025;33;20470;-75
2022/12/15 06:36:30;;;;;;;83.68;29.33;;;;;;;-4.03;100.00;97776.09;4264305;33;20380;-74
2022/12/15 06:38:59;;;;;;;87.95;29.95;;;;;;;-4.05;100.00;97807.03;4265369;33;20054;-75
2022/12/15 06:41:28;;;;;;;90.97;28.90;;;;;;;-3.69;100.00;97829.84;4273605;33;20463;-75
2022/12/15 06:43:54;;;;;;;76.87;30.60;;;;;;;-4.17;100.00;97795.38;4283557;33;20088;-75
2022/12/15 06:46:21;;;;;;;76.65;25.98;;;;;;;-4.02;100.00;97825.06;4278785;33;20078;-75
2022/12/15 06:48:49;;;;;;;87.20;32.40;;;;;;;-4.08;100.00;97843.41;4280025;33;20049;-75
2022/12/15 06:51:16;;;;;;;72.72;26.27;;;;;;;-4.38;100.00;97812.72;4280585;33;20045;-76
2022/12/15 06:53:47;;;;;;;73.00;29.95;;;;;;;-4.32;100.00;97815.59;4251821;33;20060;-76
2022/12/15 06:56:19;;;;;;;83.32;30.20;;;;;;;-3.88;100.00;97851.50;4252255;33;20074;-77
2022/12/15 06:58:47;;;;;;;82.95;29.60;;;;;;;-4.02;100.00;97806.66;4251261;33;20050;-76
2022/12/15 07:01:14;;;;;;;69.07;25.80;;;;;;;-3.95;100.00;97869.03;4251599;33;20099;-76
2022/12/15 07:03:41;;;;;;;86.60;30.35;;;;;;;-4.25;100.00;97869.09;4250272;33;20038;-77
2022/12/15 07:06:10;;;;;;;83.82;29.30;;;;;;;-4.14;100.00;97876.50;4221116;33;20031;-75
2022/12/15 07:08:37;;;;;;;88.57;30.02;;;;;;;-3.99;100.00;97876.47;4223925;33;20059;-77
2022/12/15 07:11:05;;;;;;;99.20;31.42;;;;;;;-3.97;100.00;97871.84;4223233;33;20065;-77
2022/12/15 07:13:31;;;;;;;99.72;32.90;;;;;;;-3.87;100.00;97879.44;4232564;33;20042;-78
2022/12/15 07:15:59;;;;;;;80.03;27.95;;;;;;;-4.01;100.00;97881.91;4235943;33;20034;-76
2022/12/15 07:18:26;;;;;;;74.18;26.25;;;;;;;-4.06;100.00;97884.28;4246822;33;20072;-84
2022/12/15 07:20:52;;;;;;;57.33;20.12;;;;;;;-4.41;100.00;97849.88;4252300;33;20038;-81
2022/12/15 07:23:19;;;;;;;102.00;31.33;;;;;;;-4.48;100.00;97885.78;4252003;33;20075;-82
2022/12/15 07:25:45;;;;;;;104.87;35.03;;;;;;;-4.34;100.00;97901.72;4277406;33;20064;-80
2022/12/15 07:28:12;;;;;;;106.18;37.08;;;;;;;-4.34;100.00;97857.03;4276716;33;20178;-80
2022/12/15 07:30:39;;;;;;;77.85;29.70;;;;;;;-3.88;100.00;97897.06;4249843;33;20077;-81
2022/12/15 07:33:05;;;;;;;85.62;30.62;;;;;;;-4.25;100.00;97892.75;4254615;33;20042;-80
2022/12/15 07:35:31;;;;;;;103.32;33.67;;;;;;;-3.99;100.00;97904.59;4255652;33;20383;-79
2022/12/15 07:37:59;;;;;;;124.70;40.85;;;;;;;-4.47;100.00;97861.13;4262602;33;20512;-79
2022/12/15 07:40:25;;;;;;;71.07;24.87;;;;;;;-4.26;100.00;97898.97;4274340;33;20187;-79
2022/12/15 07:42:52;;;;;;;72.03;27.80;;;;;;;-4.38;100.00;97920.47;4266191;33;20505;-79
2022/12/15 07:45:18;;;;;;;85.82;31.77;;;;;;;-4.34;100.00;97912.22;4269640;33;20074;-78
2022/12/15 07:47:49;;;;;;;93.85;30.25;;;;;;;-4.04;100.00;97927.00;4263614;33;20085;-79
2022/12/15 07:50:16;;;;;;;91.97;32.05;;;;;;;-4.43;100.00;97888.66;4253610;33;20369;-78
2022/12/15 07:52:45;;;;;;;53.33;22.27;;;;;;;-4.15;100.00;97890.63;4249034;33;20051;-79
2022/12/15 07:55:11;;;;;;;77.05;30.23;;;;;;;-4.05;100.00;97943.75;4251376;33;20068;-78
2022/12/15 07:57:38;;;;;;;79.15;29.15;;;;;;;-3.98;100.00;97956.19;4252369;33;20071;-79
2022/12/15 08:00:05;;;;;;;85.43;27.92;;;;;;;-4.15;100.00;97927.44;4263118;33;20062;-78
2022/12/15 08:02:41;;;;;;;95.60;30.73;;;;;;;-3.87;100.00;97961.78;4272233;33;20136;-78
2022/12/15 08:05:09;;;;;;;94.40;35.67;;;;;;;-3.83;100.00;97962.22;4279400;33;20042;-78
2022/12/15 08:07:35;;;;;;;91.78;31.60;;;;;;;-4.10;100.00;97922.47;4277262;33;20099;-77
2022/12/15 08:10:02;;;;;;;58.65;22.70;;;;;;;-3.86;100.00;97983.63;4267648;33;20042;-77
2022/12/15 08:12:30;;;;;;;89.78;33.33;;;;;;;-4.13;100.00;97974.56;4264676;33;20058;-79
2022/12/15 08:14:56;;;;;;;91.50;32.42;;;;;;;-4.04;100.00;97976.97;4263622;33;20033;-77
2022/12/15 08:17:22;;;;;;;80.82;28.00;;;;;;;-3.95;100.00;97975.03;4267664;33;20034;-78
2022/12/15 08:19:49;;;;;;;83.75;29.12;;;;;;;-4.11;100.00;97981.31;4267210;33;20330;-78
2022/12/15 08:22:15;;;;;;;75.95;27.08;;;;;;;-4.00;100.00;97977.41;4254746;33;20051;-78
2022/12/15 08:24:42;;;;;;;93.87;32.08;;;;;;;-4.20;100.00;97987.63;4253934;33;20064;-79
2022/12/15 08:27:08;;;;;;;80.68;28.38;;;;;;;-4.49;100.00;97954.28;4259837;33;20079;-79
2022/12/15 08:29:35;;;;;;;89.15;32.67;;;;;;;-4.50;100.00;97973.66;4254097;33;20046;-79
2022/12/15 08:32:01;;;;;;;64.70;23.58;;;;;;;-4.06;100.00;97999.97;4253392;33;20055;-78
2022/12/15 08:34:27;;;;;;;94.97;33.00;;;;;;;-4.32;100.00;97973.28;4252455;33;20577;-77
2022/12/15 08:36:54;;;;;;;95.72;34.47;;;;;;;-4.07;100.00;98008.03;4253512;33;20038;-78
2022/12/15 08:39:20;;;;;;;66.03;25.67;;;;;;;-4.06;100.00;97994.72;4253380;33;20082;-78
2022/12/15 08:41:48;;;;;;;84.40;30.73;;;;;;;-4.02;100.00;98021.44;4254558;33;20065;-79
2022/12/15 08:44:15;;;;;;;91.63;33.25;;;;;;;-3.83;100.00;98017.47;4238110;33;20104;-79
2022/12/15 08:46:42;;;;;;;67.10;27.25;;;;;;;-3.74;100.00;98034.78;4247553;33;20038;-79
2022/12/15 08:49:09;;;;;;;106.72;33.67;;;;;;;-3.84;100.00;98034.25;4278662;33;20046;-79
2022/12/15 08:51:35;;;;;;;88.10;34.55;;;;;;;-3.94;100.00;98028.44;4282304;33;20051;-79
2022/12/15 08:54:02;;;;;;;105.57;33.47;;;;;;;-3.74;100.00;98040.06;4261806;33;20060;-79
2022/12/15 08:56:29;;;;;;;86.47;33.65;;;;;;;-3.87;100.00;98024.09;4261058;33;20041;-77
2022/12/15 08:59:00;;;;;;;114.68;38.63;;;;;;;-3.62;100.00;98039.59;4254801;33;20030;-79
2022/12/15 09:01:30;;;;;;;105.50;37.20;;;;;;;-3.54;100.00;98042.13;4252537;33;20059;-79
2022/12/15 09:03:57;;;;;;;86.82;33.95;;;;;;;-3.40;100.00;98041.28;4252954;33;20038;-78
2022/12/15 09:06:26;;;;;;;96.32;33.75;;;;;;;-3.60;100.00;98040.25;4250730;33;20081;-77
2022/12/15 09:08:55;;;;;;;94.30;32.47;;;;;;;-3.57;100.00;98050.41;4251124;33;20068;-77
2022/12/15 09:13:57;;;;;;;79.95;32.22;;;;;;;-4.02;100.00;98055.63;4223796;33;20034;-77
2022/12/15 09:16:30;;;;;;;84.35;30.85;;;;;;;-3.81;100.00;98054.94;4251554;33;20038;-78
2022/12/15 09:18:58;;;;;;;76.70;28.27;;;;;;;-3.39;100.00;98056.09;4252442;33;20034;-78
2022/12/15 09:21:28;;;;;;;94.75;32.58;;;;;;;-3.69;100.00;98019.25;4239608;33;20097;-77
2022/12/15 09:23:59;;;;;;;92.15;33.00;;;;;;;-3.48;100.00;98049.28;4208161;34;20149;-76
2022/12/15 09:26:28;;;;;;;79.20;28.20;;;;;;;-3.56;100.00;98063.34;4205633;34;20436;-76
2022/12/15 09:28:54;;;;;;;88.37;30.12;;;;;;;-4.08;100.00;98064.28;4209001;34;20162;-79
2022/12/15 09:31:27;;;;;;;80.47;28.02;;;;;;;-3.82;100.00;98058.56;4215639;34;20051;-78
2022/12/15 09:33:55;;;;;;;56.95;24.10;;;;;;;-3.84;100.00;98065.81;4211795;34;20071;-77
2022/12/15 09:36:23;;;;;;;69.35;25.25;;;;;;;-4.19;100.00;98068.16;4197907;34;20053;-77
2022/12/15 09:38:49;;;;;;;82.68;29.83;;;;;;;-4.25;100.00;98074.91;4211931;34;20256;-78
2022/12/15 09:41:26;;;;;;;102.68;33.47;;;;;;;-3.96;100.00;98057.56;4213785;33;20040;-78
2022/12/15 09:43:55;;;;;;;86.60;29.20;;;;;;;-3.28;100.00;98071.41;4249379;33;20038;-79
2022/12/15 09:49:35;;;;;;;95.78;34.10;;;;;;;-3.49;100.00;98055.56;4239766;33;20162;-77
2022/12/15 09:52:05;;;;;;;77.90;27.30;;;;;;;-3.34;100.00;98061.59;4245653;33;20102;-77
2022/12/15 09:54:33;;;;;;;79.37;29.60;;;;;;;-3.79;100.00;98063.47;4260286;33;20082;-79
2022/12/15 09:57:09;;;;;;;75.75;26.27;;;;;;;-4.06;100.00;98042.03;4267495;33;20098;-77
2022/12/15 10:00:00;;;;;;;79.22;28.15;;;;;;;-3.63;100.00;98077.44;4256144;33;20056;-76
2022/12/15 10:02:54;;;;;;;66.57;23.62;;;;;;;-3.56;100.00;98078.34;4253755;33;20057;-78
2022/12/15 10:05:49;;;;;;;92.03;32.42;;;;;;;-3.81;100.00;98039.16;4243843;33;20081;-77
2022/12/15 10:08:16;;;;;;;101.18;32.28;;;;;;;-3.49;100.00;98095.03;4209223;34;20502;-78
2022/12/15 10:10:53;;;;;;;66.97;26.30;;;;;;;-3.59;100.00;98089.22;4208713;34;20035;-79
2022/12/15 10:13:40;;;;;;;88.07;33.53;;;;;;;-3.82;100.00;98095.37;4208871;33;20059;-78
2022/12/15 10:16:27;;;;;;;66.15;25.98;;;;;;;-3.54;100.00;98092.12;4210420;33;20081;-77
2022/12/15 10:19:00;;;;;;;96.07;34.40;;;;;;;-3.48;100.00;98096.66;4194365;34;20044;-78
2022/12/15 10:21:36;;;;;;;;;;;;;;;-3.23;100.00;98099.00;4194973;34;20047;-78
2022/12/15 10:24:15;;;;;;;89.50;31.10;;;;;;;-2.88;100.00;98102.66;4191014;34;19963;-78
2022/12/15 10:26:47;;;;;;;100.75;32.45;;;;;;;-3.24;100.00;98065.78;4193406;34;20063;-79
2022/12/15 10:29:43;;;;;;;74.20;27.70;;;;;;;-3.19;100.00;98064.22;4190543;34;20043;-78
2022/12/15 10:32:21;;;;;;;98.90;33.13;;;;;;;-3.20;100.00;98124.97;4194939;34;20180;-80
2022/12/15 10:34:48;;;;;;;97.32;34.28;;;;;;;-3.05;100.00;98102.03;4187482;34;20067;-79
2022/12/15 10:37:18;;;;;;;90.85;32.83;;;;;;;-2.97;100.00;98120.41;4219225;34;20117;-79
2022/12/15 10:39:49;;;;;;;79.75;27.62;;;;;;;-3.22;100.00;98116.41;4235592;33;20428;-78
2022/12/15 10:42:20;;;;;;;90.35;30.67;;;;;;;-2.99;100.00;98116.31;4247315;33;20084;-74
2022/12/15 10:44:53;;;;;;;77.72;29.85;;;;;;;-2.96;100.00;98111.47;4247333;33;20090;-75
2022/12/15 10:47:27;;;;;;;85.00;31.02;;;;;;;-2.87;100.00;98114.00;4246386;33;20037;-74
2022/12/15 10:50:14;;;;;;;87.40;32.25;;;;;;;-3.36;100.00;98079.41;4263168;33;20042;-74
2022/12/15 10:52:41;;;;;;;81.95;27.20;;;;;;;-3.24;100.00;98105.25;4295960;33;20048;-74
2022/12/15 10:55:27;;;;;;;67.18;26.75;;;;;;;-3.33;100.00;98112.47;4292115;33;20063;-74
2022/12/15 10:58:01;;;;;;;83.97;27.17;;;;;;;-3.02;100.00;98120.13;4292066;33;20457;-73
2022/12/15 11:00:31;;;;;;;89.18;30.08;;;;;;;-3.26;100.00;98115.97;4259245;33;20063;-74
2022/12/15 11:03:20;;;;;;;95.07;32.42;;;;;;;-3.20;100.00;98072.31;4246607;33;20162;-74
2022/12/15 11:05:55;;;;;;;67.87;26.27;;;;;;;-3.05;100.00;98083.59;4247704;33;20352;-74
2022/12/15 11:08:23;;;;;;;84.13;26.80;;;;;;;-2.70;100.00;98110.13;4246945;33;20056;-73
2022/12/15 11:14:02;;;;;;;;;;;;;;;-3.09;100.00;98132.41;4217498;33;20122;-74
2022/12/15 11:16:30;;;;;;;72.00;24.75;;;;;;;-2.72;100.00;98138.50;4220323;33;19983;-75
2022/12/15 11:19:21;;;;;;;75.93;29.73;;;;;;;-3.20;100.00;98135.50;4179654;34;20082;-74
2022/12/15 11:21:55;;;;;;;73.85;24.65;;;;;;;-3.19;100.00;98127.44;4175541;34;21029;-74
2022/12/15 11:24:33;;;;;;;80.10;25.85;;;;;;;-3.19;100.00;98140.59;4181356;34;20095;-73
2022/12/15 11:27:09;;;;;;;72.50;29.40;;;;;;;-2.70;100.00;98156.75;4169795;34;20390;-73
2022/12/15 11:30:07;;;;;;;70.22;27.30;;;;;;;-2.57;100.00;98146.34;4149058;34;20057;-73
2022/12/15 11:32:37;;;;;;;68.20;24.90;;;;;;;-2.40;100.00;98157.47;4163999;34;20125;-75
2022/12/15 11:35:11;;;;;;;61.05;23.48;;;;;;;-2.43;100.00;98168.41;4163879;34;20095;-73
2022/12/15 11:37:39;;;;;;;55.33;21.30;;;;;;;-2.83;100.00;98131.06;4173757;34;20446;-74
2022/12/15 11:40:24;;;;;;;72.47;27.83;;;;;;;-3.07;100.00;98177.81;4194573;34;20421;-73
2022/12/15 11:42:51;;;;;;;46.08;19.00;;;;;;;-3.01;100.00;98182.34;4217854;33;20084;-74
2022/12/15 11:45:20;;;;;;;68.93;25.25;;;;;;;-3.15;100.00;98183.16;4228284;33;20450;-73
2022/12/15 11:48:11;;;;;;;50.42;20.58;;;;;;;-3.05;100.00;98186.31;4221637;34;20059;-74
2022/12/15 11:50:47;;;;;;;61.13;24.83;;;;;;;-2.89;100.00;98190.59;4215107;33;20050;-74
2022/12/15 11:53:24;;;;;;;75.10;25.55;;;;;;;-3.15;100.00;98185.81;4219504;33;20053;-74
2022/12/15 11:55:53;;;;;;;77.18;28.77;;;;;;;-2.86;100.00;98178.87;4219935;33;20137;-74
2022/12/15 11:58:44;;;;;;;68.87;26.05;;;;;;;-2.76;100.00;98174.13;4235543;33;20055;-74
2022/12/15 12:01:32;;;;;;;77.60;25.93;;;;;;;-2.80;100.00;98207.12;4386694;28;20614;-73
2022/12/15 12:04:19;;;;;;;67.62;25.05;;;;;;;-2.81;100.00;98202.84;4254167;33;20395;-75
2022/12/15 12:07:05;;;;;;;85.28;28.70;;;;;;;-2.88;100.00;98207.22;4239416;33;20037;-74
2022/12/15 12:09:36;;;;;;;90.45;28.40;;;;;;;-2.45;100.00;98207.31;4248046;33;20075;-74
2022/12/15 12:12:20;;;;;;;31.62;12.27;;;;;;;-2.73;100.00;98163.19;4249964;33;20595;-74
2022/12/15 12:14:56;;;;;;;75.53;25.85;;;;;;;-3.12;100.00;98212.59;4249834;33;20083;-74
2022/12/15 12:17:32;;;;;;;50.42;19.45;;;;;;;-2.98;100.00;98207.50;4246817;33;20368;-74
2022/12/15 12:20:07;;;;;;;77.10;27.48;;;;;;;-3.26;100.00;98215.22;4234932;33;20068;-73
2022/12/15 12:22:41;;;;;;;72.22;26.12;;;;;;;-2.93;100.00;98211.22;4243929;33;20046;-74
2022/12/15 12:25:19;;;;;;;71.85;26.33;;;;;;;-3.16;100.00;98178.87;4241083;33;20577;-74
2022/12/15 12:27:55;;;;;;;82.97;30.08;;;;;;;-2.98;100.00;98213.59;4235146;33;20051;-74
2022/12/15 12:30:27;;;;;;;91.70;31.58;;;;;;;-2.96;100.00;98182.59;4230687;33;20408;-74
2022/12/15 12:33:31;;;;;;;83.90;33.03;;;;;;;-2.44;100.00;98214.22;4230534;33;20160;-74
2022/12/15 12:36:19;;;;;;;79.43;32.03;;;;;;;-2.86;100.00;98141.97;4232024;33;20204;-75
2022/12/15 12:38:52;;;;;;;95.90;34.50;;;;;;;-2.42;100.00;98228.84;4255972;33;20067;-74
2022/12/15 12:41:50;;;;;;;78.87;32.05;;;;;;;-2.76;100.00;98184.66;4266636;33;20046;-75
2022/12/15 12:44:34;;;;;;;87.90;31.20;;;;;;;-2.47;100.00;98225.13;4258268;33;20046;-75
2022/12/15 12:47:23;;;;;;;79.12;29.85;;;;;;;-2.72;100.00;98185.94;4229688;33;20051;-76
2022/12/15 12:50:01;;;;;;;74.15;29.08;;;;;;;-2.49;100.00;98232.41;4213891;33;20047;-75
2022/12/15 12:52:34;;;;;;;86.93;29.70;;;;;;;-2.51;100.00;98202.78;4235007;33;20395;-76
2022/12/15 12:55:24;;;;;;;73.80;30.98;;;;;;;-2.37;100.00;98237.00;4225422;33;20035;-76
2022/12/15 12:57:53;;;;;;;75.40;34.25;;;;;;;-2.44;100.00;98248.47;4225268;33;20061;-76
2022/12/15 13:00:30;;;;;;;66.57;28.50;;;;;;;-2.75;100.00;98249.53;4224890;33;20072;-75
2022/12/15 13:03:18;;;;;;;48.63;21.27;;;;;;;-3.02;100.00;98222.03;4252141;33;20045;-74
2022/12/15 13:05:48;;;;;;;85.50;30.95;;;;;;;-2.97;100.00;98265.28;4243045;33;20358;-76
2022/12/15 13:08:26;;;;;;;85.68;33.67;;;;;;;-3.13;100.00;98262.81;4239676;33;20065;-76
2022/12/15 13:10:54;;;;;;;78.62;29.63;;;;;;;-2.89;100.00;98260.91;4229182;33;20461;-76
2022/12/15 13:13:30;;;;;;;72.05;25.60;;;;;;;-3.22;100.00;98216.47;4239113;33;20080;-74
2022/12/15 13:16:17;;;;;;;76.72;30.15;;;;;;;-2.84;100.00;98271.72;4243136;33;20528;-75
2022/12/15 13:19:02;;;;;;;66.05;25.45;;;;;;;-3.21;100.00;98233.91;4244707;33;20221;-75
2022/12/15 13:21:40;;;;;;;65.93;26.25;;;;;;;-3.18;100.00;98275.69;4249845;33;20487;-77
2022/12/15 13:24:36;;;;;;;48.75;20.92;;;;;;;-2.93;100.00;98284.16;4256646;33;20045;-76
2022/12/15 13:27:08;;;;;;;79.53;31.58;;;;;;;-3.38;100.00;98234.09;4252829;33;20090;-76
2022/12/15 13:29:52;;;;;;;74.00;27.35;;;;;;;-3.03;100.00;98242.28;4263602;33;20061;-76
2022/12/15 13:32:30;;;;;;;88.82;32.05;;;;;;;-3.14;100.00;98274.34;4259440;33;20097;-76
2022/12/15 13:35:14;;;;;;;70.85;28.17;;;;;;;-3.11;100.00;98271.34;4263228;33;20061;-75
2022/12/15 13:37:47;;;;;;;61.13;26.20;;;;;;;-3.22;100.00;98255.97;4264502;33;20401;-76
2022/12/15 13:40:32;;;;;;;63.90;26.65;;;;;;;-3.30;100.00;98256.91;4264596;33;20054;-76
2022/12/15 13:43:08;;;;;;;77.07;30.75;;;;;;;-3.12;100.00;98259.19;4271338;33;20464;-76
2022/12/15 13:45:51;;;;;;;86.57;30.60;;;;;;;-2.99;100.00;98222.47;4281728;33;20063;-75
2022/12/15 13:48:26;;;;;;;77.78;29.12;;;;;;;-2.80;100.00;98257.19;4280240;33;20063;-75
2022/12/15 13:51:44;;;;;;;35.63;13.75;;;;;;;-2.95;100.00;98249.28;4280800;33;20045;-74
2022/12/15 13:54:16;;;;;;;87.88;31.33;;;;;;;-3.12;100.00;98259.97;4241984;33;20055;-75
2022/12/15 13:56:54;;;;;;;92.07;31.00;;;;;;;-3.29;100.00;98259.34;4251690;33;20096;-75
2022/12/15 13:59:44;;;;;;;79.55;29.85;;;;;;;-3.12;100.00;98224.94;4231080;33;20475;-74
2022/12/15 14:02:40;;;;;;;84.15;31.42;;;;;;;-2.83;100.00;98262.81;4231328;33;20062;-75
2022/12/15 14:05:24;;;;;;;92.15;33.05;;;;;;;-3.13;100.00;98257.53;4218832;34;20090;-76
2022/12/15 14:07:57;;;;;;;109.07;37.10;;;;;;;-3.20;100.00;98209.22;4221751;34;20514;-80
2022/12/15 14:10:40;;;;;;;80.90;32.95;;;;;;;-3.10;100.00;98251.91;4268805;28;20508;-74
2022/12/15 14:13:34;;;;;;;103.07;35.25;;;;;;;-3.42;100.00;98243.34;4181402;34;20179;-74
2022/12/15 14:16:17;;;;;;;88.70;31.83;;;;;;;-3.30;100.00;98220.84;4178887;34;20195;-75
2022/12/15 14:19:02;;;;;;;93.45;33.85;;;;;;;-3.14;100.00;98264.63;4179698;34;20376;-74
2022/12/15 14:21:29;;;;;;;93.05;34.33;;;;;;;-3.24;100.00;98247.44;4180617;34;20044;-76
2022/12/15 14:23:59;;;;;;;91.85;34.42;;;;;;;-3.57;100.00;98258.31;4181414;34;20035;-75
2022/12/15 14:26:29;;;;;;;89.78;33.47;;;;;;;-3.33;100.00;98263.31;4189034;34;20069;-75
2022/12/15 14:29:01;;;;;;;89.80;35.88;;;;;;;-3.58;100.00;98212.72;4189199;34;20069;-75
2022/12/15 14:31:29;;;;;;;101.87;39.97;;;;;;;-3.37;100.00;98262.03;4189154;34;20086;-74
2022/12/15 14:34:07;;;;;;;125.78;54.97;;;;;;;-3.11;100.00;98271.34;4188110;34;20092;-74
2022/12/15 14:36:35;;;;;;;148.15;65.82;;;;;;;-3.33;100.00;98239.63;4181469;34;20382;-74
2022/12/15 14:39:06;;;;;;;70.68;29.42;;;;;;;-3.20;100.00;98281.13;4179788;34;20054;-75
2022/12/15 14:41:42;;;;;;;77.20;27.77;;;;;;;-3.26;100.00;98283.69;4194735;34;20062;-76
2022/12/15 14:44:37;;;;;;;69.10;27.15;;;;;;;-3.36;100.00;98250.53;4209909;34;20073;-76
2022/12/15 14:47:07;;;;;;;71.07;26.73;;;;;;;-3.28;100.00;98287.28;4217575;33;20042;-74
2022/12/15 14:49:43;;;;;;;88.07;30.15;;;;;;;-3.18;100.00;98286.22;4237395;33;20161;-75
2022/12/15 14:52:21;;;;;;;173.38;59.92;;;;;;;-3.03;100.00;98287.06;4234872;33;20377;-74
2022/12/15 14:54:52;;;;;;;263.02;99.13;;;;;;;-2.86;100.00;98297.44;4236979;33;20076;-75
2022/12/15 14:57:42;;;;;;;93.53;35.15;;;;;;;-2.82;100.00;98290.81;4237645;33;20064;-75
2022/12/15 15:00:25;;;;;;;66.05;25.35;;;;;;;-2.64;100.00;98288.59;4254387;33;20123;-74
2022/12/15 15:03:20;;;;;;;51.33;22.33;;;;;;;-3.22;100.00;98250.72;4249752;33;20068;-74
2022/12/15 15:05:54;;;;;;;50.45;21.23;;;;;;;-3.05;100.00;98286.41;4249354;33;20777;-74
2022/12/15 15:08:34;;;;;;;34.97;13.30;;;;;;;-3.09;100.00;98293.06;4249629;33;20047;-74
2022/12/15 15:11:18;;;;;;;32.42;14.35;;;;;;;-3.04;100.00;98298.59;4246376;33;20079;-75
2022/12/15 15:13:44;;;;;;;70.95;19.95;;;;;;;-3.06;100.00;98300.59;4249334;33;20110;-74
2022/12/15 15:16:17;;;;;;;73.43;29.08;;;;;;;-3.21;100.00;98292.66;4249278;33;20042;-73
2022/12/15 15:18:48;;;;;;;51.05;24.67;;;;;;;-3.55;100.00;98274.72;4248273;33;20054;-73
2022/12/15 15:21:19;;;;;;;35.65;16.73;;;;;;;-3.10;100.00;98299.31;4251612;33;20068;-74
2022/12/15 15:24:10;;;;;;;48.15;18.27;;;;;;;-3.05;100.00;98318.03;4236332;33;20101;-75
2022/12/15 15:26:43;;;;;;;42.22;15.82;;;;;;;-2.98;100.00;98312.88;4237663;33;20245;-74
2022/12/15 15:29:39;;;;;;;35.28;14.48;;;;;;;-3.37;100.00;98313.88;4223401;33;20535;-74
2022/12/15 15:32:18;;;;;;;111.90;31.25;;;;;;;-2.85;100.00;98333.31;4221177;33;20043;-74
2022/12/15 15:34:48;;;;;;;33.63;13.25;;;;;;;-2.65;100.00;98344.12;4225530;33;20061;-74
2022/12/15 15:37:21;;;;;;;45.20;15.55;;;;;;;-3.03;100.00;98355.56;4237671;33;20039;-75
2022/12/15 15:39:49;;;;;;;41.60;14.40;;;;;;;-3.04;100.00;98356.53;4207386;34;20035;-74
2022/12/15 15:42:16;;;;;;;61.45;17.17;;;;;;;-3.11;100.00;98359.06;4209111;34;20069;-74